sensor_id;sensor_type;location;lat;lon;timestamp;P1;durP1;ratioP1;P2;durP2;ratioP2
20022;SDS011;10172;42.054;24.546;2023-06-14T00:00:37;6.35;;;3.20;;
20022;SDS011;10172;42.054;24.546;2023-06-14T00:03:09;5.03;;;2.95;;
20022;SDS011;10172;42.054;24.546;2023-06-14T00:05:37;4.60;;;2.97;;
20022;SDS011;10172;42.054;24.546;2023-06-14T00:08:08;3.45;;;2.78;;
20022;SDS011;10172;42.054;24.546;2023-06-14T00:10:35;6.32;;;3.17;;
20022;SDS011;10172;42.054;24.546;2023-06-14T00:13:01;6.50;;;3.30;;
20022;SDS011;10172;42.054;24.546;2023-06-14T00:15:30;6.57;;;2.80;;
20022;SDS011;10172;42.054;24.546;2023-06-14T00:17:59;4.35;;;2.50;;
20022;SDS011;10172;42.054;24.546;2023-06-14T00:20:29;6.45;;;2.70;;
20022;SDS011;10172;42.054;24.546;2023-06-14T00:23:01;5.88;;;2.67;;
20022;SDS011;10172;42.054;24.546;2023-06-14T00:25:27;4.82;;;2.80;;
20022;SDS011;10172;42.054;24.546;2023-06-14T00:27:53;5.90;;;2.60;;
20022;SDS011;10172;42.054;24.546;2023-06-14T00:30:19;7.07;;;3.22;;
20022;SDS011;10172;42.054;24.546;2023-06-14T00:32:45;5.10;;;3.05;;
20022;SDS011;10172;42.054;24.546;2023-06-14T00:35:11;4.70;;;2.90;;
20022;SDS011;10172;42.054;24.546;2023-06-14T00:37:37;3.92;;;2.72;;
20022;SDS011;10172;42.054;24.546;2023-06-14T00:40:03;7.63;;;3.58;;
20022;SDS011;10172;42.054;24.546;2023-06-14T00:42:30;3.55;;;2.65;;
20022;SDS011;10172;42.054;24.546;2023-06-14T00:44:56;4.68;;;3.08;;
20022;SDS011;10172;42.054;24.546;2023-06-14T00:47:22;7.45;;;3.33;;
20022;SDS011;10172;42.054;24.546;2023-06-14T00:49:48;5.68;;;3.08;;
20022;SDS011;10172;42.054;24.546;2023-06-14T00:52:15;4.22;;;2.90;;
20022;SDS011;10172;42.054;24.546;2023-06-14T00:54:41;5.50;;;3.15;;
20022;SDS011;10172;42.054;24.546;2023-06-14T00:57:07;4.07;;;2.85;;
20022;SDS011;10172;42.054;24.546;2023-06-14T00:59:35;3.53;;;2.75;;
20022;SDS011;10172;42.054;24.546;2023-06-14T01:02:06;7.57;;;3.20;;
20022;SDS011;10172;42.054;24.546;2023-06-14T01:04:32;7.47;;;3.35;;
20022;SDS011;10172;42.054;24.546;2023-06-14T01:12:31;5.65;;;3.15;;
20022;SDS011;10172;42.054;24.546;2023-06-14T01:15:16;4.50;;;3.05;;
20022;SDS011;10172;42.054;24.546;2023-06-14T01:17:42;5.65;;;3.40;;
20022;SDS011;10172;42.054;24.546;2023-06-14T01:20:11;4.80;;;3.42;;
20022;SDS011;10172;42.054;24.546;2023-06-14T01:22:58;6.82;;;3.33;;
20022;SDS011;10172;42.054;24.546;2023-06-14T01:25:24;9.07;;;3.25;;
20022;SDS011;10172;42.054;24.546;2023-06-14T01:27:58;4.68;;;2.85;;
20022;SDS011;10172;42.054;24.546;2023-06-14T01:30:27;4.43;;;2.83;;
20022;SDS011;10172;42.054;24.546;2023-06-14T01:32:54;7.47;;;3.30;;
20022;SDS011;10172;42.054;24.546;2023-06-14T01:35:21;3.80;;;2.47;;
20022;SDS011;10172;42.054;24.546;2023-06-14T01:37:47;7.15;;;2.92;;
20022;SDS011;10172;42.054;24.546;2023-06-14T01:40:14;4.65;;;2.85;;
20022;SDS011;10172;42.054;24.546;2023-06-14T01:42:41;7.40;;;3.13;;
20022;SDS011;10172;42.054;24.546;2023-06-14T01:45:09;4.97;;;2.90;;
20022;SDS011;10172;42.054;24.546;2023-06-14T01:47:36;8.30;;;3.33;;
20022;SDS011;10172;42.054;24.546;2023-06-14T01:50:02;4.22;;;2.97;;
20022;SDS011;10172;42.054;24.546;2023-06-14T01:52:28;5.22;;;3.10;;
20022;SDS011;10172;42.054;24.546;2023-06-14T01:54:54;7.78;;;3.60;;
20022;SDS011;10172;42.054;24.546;2023-06-14T01:57:20;6.00;;;3.38;;
20022;SDS011;10172;42.054;24.546;2023-06-14T01:59:47;3.35;;;2.53;;
20022;SDS011;10172;42.054;24.546;2023-06-14T02:02:13;8.10;;;3.53;;
20022;SDS011;10172;42.054;24.546;2023-06-14T02:04:39;7.57;;;3.17;;
20022;SDS011;10172;42.054;24.546;2023-06-14T02:07:05;6.90;;;2.92;;
20022;SDS011;10172;42.054;24.546;2023-06-14T02:09:31;4.80;;;3.20;;
20022;SDS011;10172;42.054;24.546;2023-06-14T02:11:56;7.03;;;3.42;;
20022;SDS011;10172;42.054;24.546;2023-06-14T02:14:22;8.10;;;3.35;;
20022;SDS011;10172;42.054;24.546;2023-06-14T02:16:48;5.53;;;3.05;;
20022;SDS011;10172;42.054;24.546;2023-06-14T02:19:17;4.38;;;2.92;;
20022;SDS011;10172;42.054;24.546;2023-06-14T02:21:44;5.22;;;3.13;;
20022;SDS011;10172;42.054;24.546;2023-06-14T02:24:10;4.70;;;3.08;;
20022;SDS011;10172;42.054;24.546;2023-06-14T02:26:36;6.32;;;3.15;;
20022;SDS011;10172;42.054;24.546;2023-06-14T02:29:03;5.22;;;3.22;;
20022;SDS011;10172;42.054;24.546;2023-06-14T02:31:30;6.40;;;3.58;;
20022;SDS011;10172;42.054;24.546;2023-06-14T02:33:58;5.80;;;3.33;;
20022;SDS011;10172;42.054;24.546;2023-06-14T02:36:24;4.68;;;3.28;;
20022;SDS011;10172;42.054;24.546;2023-06-14T02:38:49;7.40;;;3.25;;
20022;SDS011;10172;42.054;24.546;2023-06-14T02:41:15;6.13;;;3.00;;
20022;SDS011;10172;42.054;24.546;2023-06-14T02:43:40;7.20;;;3.30;;
20022;SDS011;10172;42.054;24.546;2023-06-14T02:46:06;5.90;;;3.22;;
20022;SDS011;10172;42.054;24.546;2023-06-14T02:48:32;5.53;;;3.38;;
20022;SDS011;10172;42.054;24.546;2023-06-14T02:50:57;10.90;;;4.25;;
20022;SDS011;10172;42.054;24.546;2023-06-14T02:53:23;5.35;;;3.45;;
20022;SDS011;10172;42.054;24.546;2023-06-14T02:55:48;5.22;;;3.38;;
20022;SDS011;10172;42.054;24.546;2023-06-14T02:58:14;5.03;;;3.28;;
20022;SDS011;10172;42.054;24.546;2023-06-14T03:00:41;7.85;;;3.65;;
20022;SDS011;10172;42.054;24.546;2023-06-14T03:03:07;5.72;;;3.50;;
20022;SDS011;10172;42.054;24.546;2023-06-14T03:05:43;7.80;;;4.00;;
20022;SDS011;10172;42.054;24.546;2023-06-14T03:08:14;7.38;;;3.88;;
20022;SDS011;10172;42.054;24.546;2023-06-14T03:10:47;6.30;;;3.50;;
20022;SDS011;10172;42.054;24.546;2023-06-14T03:13:14;4.70;;;3.63;;
20022;SDS011;10172;42.054;24.546;2023-06-14T03:15:43;8.20;;;3.67;;
20022;SDS011;10172;42.054;24.546;2023-06-14T03:18:10;8.75;;;4.05;;
20022;SDS011;10172;42.054;24.546;2023-06-14T03:20:37;6.13;;;3.40;;
20022;SDS011;10172;42.054;24.546;2023-06-14T03:23:04;7.82;;;3.95;;
20022;SDS011;10172;42.054;24.546;2023-06-14T03:25:30;6.82;;;3.75;;
20022;SDS011;10172;42.054;24.546;2023-06-14T03:27:58;7.00;;;4.32;;
20022;SDS011;10172;42.054;24.546;2023-06-14T03:30:23;7.50;;;4.38;;
20022;SDS011;10172;42.054;24.546;2023-06-14T03:32:49;9.05;;;4.45;;
20022;SDS011;10172;42.054;24.546;2023-06-14T03:35:18;9.95;;;4.45;;
20022;SDS011;10172;42.054;24.546;2023-06-14T03:37:44;8.82;;;4.82;;
20022;SDS011;10172;42.054;24.546;2023-06-14T03:40:11;13.13;;;5.75;;
20022;SDS011;10172;42.054;24.546;2023-06-14T03:42:37;7.60;;;4.68;;
20022;SDS011;10172;42.054;24.546;2023-06-14T03:45:03;9.48;;;5.53;;
20022;SDS011;10172;42.054;24.546;2023-06-14T03:47:29;9.27;;;4.93;;
20022;SDS011;10172;42.054;24.546;2023-06-14T03:49:55;8.82;;;5.55;;
20022;SDS011;10172;42.054;24.546;2023-06-14T03:52:20;10.48;;;6.50;;
20022;SDS011;10172;42.054;24.546;2023-06-14T03:54:47;7.82;;;5.75;;
20022;SDS011;10172;42.054;24.546;2023-06-14T03:57:12;12.68;;;6.32;;
20022;SDS011;10172;42.054;24.546;2023-06-14T03:59:38;7.57;;;5.85;;
20022;SDS011;10172;42.054;24.546;2023-06-14T04:02:03;7.60;;;5.45;;
20022;SDS011;10172;42.054;24.546;2023-06-14T04:04:29;9.00;;;4.97;;
20022;SDS011;10172;42.054;24.546;2023-06-14T04:06:55;7.05;;;4.45;;
20022;SDS011;10172;42.054;24.546;2023-06-14T04:09:23;9.05;;;4.85;;
20022;SDS011;10172;42.054;24.546;2023-06-14T04:11:50;8.20;;;4.00;;
20022;SDS011;10172;42.054;24.546;2023-06-14T04:14:17;6.35;;;4.43;;
20022;SDS011;10172;42.054;24.546;2023-06-14T04:16:44;6.40;;;4.35;;
20022;SDS011;10172;42.054;24.546;2023-06-14T04:19:11;11.30;;;4.90;;
20022;SDS011;10172;42.054;24.546;2023-06-14T04:21:36;6.32;;;3.83;;
20022;SDS011;10172;42.054;24.546;2023-06-14T04:24:02;6.40;;;4.32;;
20022;SDS011;10172;42.054;24.546;2023-06-14T04:26:28;5.75;;;3.90;;
20022;SDS011;10172;42.054;24.546;2023-06-14T04:28:55;6.82;;;4.20;;
20022;SDS011;10172;42.054;24.546;2023-06-14T04:31:22;5.63;;;3.72;;
20022;SDS011;10172;42.054;24.546;2023-06-14T04:33:51;6.25;;;4.35;;
20022;SDS011;10172;42.054;24.546;2023-06-14T04:36:18;5.90;;;3.95;;
20022;SDS011;10172;42.054;24.546;2023-06-14T04:38:44;5.60;;;4.00;;
20022;SDS011;10172;42.054;24.546;2023-06-14T04:41:11;6.60;;;3.97;;
20022;SDS011;10172;42.054;24.546;2023-06-14T04:43:37;9.45;;;4.55;;
20022;SDS011;10172;42.054;24.546;2023-06-14T04:46:06;6.05;;;3.80;;
20022;SDS011;10172;42.054;24.546;2023-06-14T04:48:36;5.00;;;3.50;;
20022;SDS011;10172;42.054;24.546;2023-06-14T04:51:04;6.13;;;3.78;;
20022;SDS011;10172;42.054;24.546;2023-06-14T04:53:30;6.20;;;4.22;;
20022;SDS011;10172;42.054;24.546;2023-06-14T04:55:56;5.88;;;4.10;;
20022;SDS011;10172;42.054;24.546;2023-06-14T04:58:21;7.35;;;4.80;;
20022;SDS011;10172;42.054;24.546;2023-06-14T05:00:47;6.05;;;4.07;;
20022;SDS011;10172;42.054;24.546;2023-06-14T05:03:12;6.43;;;4.30;;
20022;SDS011;10172;42.054;24.546;2023-06-14T05:05:38;7.15;;;4.88;;
20022;SDS011;10172;42.054;24.546;2023-06-14T05:08:07;5.65;;;4.22;;
20022;SDS011;10172;42.054;24.546;2023-06-14T05:10:34;9.05;;;4.40;;
20022;SDS011;10172;42.054;24.546;2023-06-14T05:13:01;6.53;;;4.10;;
20022;SDS011;10172;42.054;24.546;2023-06-14T05:15:26;9.30;;;4.50;;
20022;SDS011;10172;42.054;24.546;2023-06-14T05:17:54;5.63;;;3.83;;
20022;SDS011;10172;42.054;24.546;2023-06-14T05:20:24;6.85;;;4.28;;
20022;SDS011;10172;42.054;24.546;2023-06-14T05:22:53;7.38;;;3.60;;
20022;SDS011;10172;42.054;24.546;2023-06-14T05:25:19;7.88;;;4.15;;
20022;SDS011;10172;42.054;24.546;2023-06-14T05:27:46;5.70;;;4.15;;
20022;SDS011;10172;42.054;24.546;2023-06-14T05:30:12;4.82;;;3.25;;
20022;SDS011;10172;42.054;24.546;2023-06-14T05:32:38;7.95;;;4.32;;
20022;SDS011;10172;42.054;24.546;2023-06-14T05:35:04;7.07;;;3.70;;
20022;SDS011;10172;42.054;24.546;2023-06-14T05:37:31;5.97;;;4.20;;
20022;SDS011;10172;42.054;24.546;2023-06-14T05:39:56;9.57;;;4.47;;
20022;SDS011;10172;42.054;24.546;2023-06-14T05:42:22;6.72;;;4.30;;
20022;SDS011;10172;42.054;24.546;2023-06-14T05:44:47;5.40;;;4.00;;
20022;SDS011;10172;42.054;24.546;2023-06-14T05:47:13;6.00;;;3.75;;
20022;SDS011;10172;42.054;24.546;2023-06-14T05:49:39;5.82;;;3.90;;
20022;SDS011;10172;42.054;24.546;2023-06-14T05:52:04;5.75;;;4.07;;
20022;SDS011;10172;42.054;24.546;2023-06-14T05:54:30;7.32;;;4.57;;
20022;SDS011;10172;42.054;24.546;2023-06-14T05:56:56;7.30;;;4.07;;
20022;SDS011;10172;42.054;24.546;2023-06-14T05:59:26;6.47;;;3.70;;
20022;SDS011;10172;42.054;24.546;2023-06-14T06:01:52;6.60;;;4.10;;
20022;SDS011;10172;42.054;24.546;2023-06-14T06:04:17;5.95;;;3.97;;
20022;SDS011;10172;42.054;24.546;2023-06-14T06:06:43;8.40;;;4.70;;
20022;SDS011;10172;42.054;24.546;2023-06-14T06:09:08;6.25;;;4.38;;
20022;SDS011;10172;42.054;24.546;2023-06-14T06:11:33;5.90;;;4.22;;
20022;SDS011;10172;42.054;24.546;2023-06-14T06:13:59;7.05;;;4.82;;
20022;SDS011;10172;42.054;24.546;2023-06-14T06:16:24;8.68;;;4.28;;
20022;SDS011;10172;42.054;24.546;2023-06-14T06:18:50;7.00;;;4.22;;
20022;SDS011;10172;42.054;24.546;2023-06-14T06:21:15;6.35;;;4.25;;
20022;SDS011;10172;42.054;24.546;2023-06-14T06:23:41;11.30;;;4.82;;
20022;SDS011;10172;42.054;24.546;2023-06-14T06:26:06;5.82;;;3.58;;
20022;SDS011;10172;42.054;24.546;2023-06-14T06:28:32;6.93;;;4.57;;
20022;SDS011;10172;42.054;24.546;2023-06-14T06:30:57;6.53;;;4.72;;
20022;SDS011;10172;42.054;24.546;2023-06-14T06:33:23;7.60;;;4.82;;
20022;SDS011;10172;42.054;24.546;2023-06-14T06:35:48;5.53;;;3.90;;
20022;SDS011;10172;42.054;24.546;2023-06-14T06:38:14;4.63;;;3.47;;
20022;SDS011;10172;42.054;24.546;2023-06-14T06:40:39;7.63;;;3.78;;
20022;SDS011;10172;42.054;24.546;2023-06-14T06:43:05;5.55;;;3.67;;
20022;SDS011;10172;42.054;24.546;2023-06-14T06:45:30;7.53;;;3.78;;
20022;SDS011;10172;42.054;24.546;2023-06-14T06:47:56;4.95;;;3.22;;
20022;SDS011;10172;42.054;24.546;2023-06-14T06:50:21;4.95;;;3.40;;
20022;SDS011;10172;42.054;24.546;2023-06-14T06:52:50;5.95;;;3.80;;
20022;SDS011;10172;42.054;24.546;2023-06-14T06:55:16;4.93;;;3.45;;
20022;SDS011;10172;42.054;24.546;2023-06-14T06:57:41;5.90;;;3.95;;
20022;SDS011;10172;42.054;24.546;2023-06-14T07:00:07;7.22;;;3.53;;
20022;SDS011;10172;42.054;24.546;2023-06-14T07:02:34;6.63;;;3.78;;
20022;SDS011;10172;42.054;24.546;2023-06-14T07:05:00;4.57;;;3.10;;
20022;SDS011;10172;42.054;24.546;2023-06-14T07:07:25;4.97;;;3.80;;
20022;SDS011;10172;42.054;24.546;2023-06-14T07:09:51;4.20;;;2.97;;
20022;SDS011;10172;42.054;24.546;2023-06-14T07:12:17;4.75;;;2.90;;
20022;SDS011;10172;42.054;24.546;2023-06-14T07:14:43;3.85;;;2.90;;
20022;SDS011;10172;42.054;24.546;2023-06-14T07:17:08;4.43;;;2.60;;
20022;SDS011;10172;42.054;24.546;2023-06-14T07:19:34;6.57;;;3.80;;
20022;SDS011;10172;42.054;24.546;2023-06-14T07:22:00;3.97;;;3.20;;
20022;SDS011;10172;42.054;24.546;2023-06-14T07:24:25;5.53;;;3.42;;
20022;SDS011;10172;42.054;24.546;2023-06-14T07:26:53;5.38;;;3.78;;
20022;SDS011;10172;42.054;24.546;2023-06-14T07:29:19;5.47;;;4.10;;
20022;SDS011;10172;42.054;24.546;2023-06-14T07:31:46;5.60;;;4.15;;
20022;SDS011;10172;42.054;24.546;2023-06-14T07:34:11;8.93;;;4.90;;
20022;SDS011;10172;42.054;24.546;2023-06-14T07:36:37;8.18;;;5.13;;
20022;SDS011;10172;42.054;24.546;2023-06-14T07:39:03;7.85;;;4.82;;
20022;SDS011;10172;42.054;24.546;2023-06-14T07:41:30;8.55;;;4.70;;
20022;SDS011;10172;42.054;24.546;2023-06-14T07:43:56;7.85;;;5.20;;
20022;SDS011;10172;42.054;24.546;2023-06-14T07:46:22;7.82;;;4.68;;
20022;SDS011;10172;42.054;24.546;2023-06-14T07:48:47;8.73;;;5.28;;
20022;SDS011;10172;42.054;24.546;2023-06-14T07:51:13;7.70;;;5.47;;
20022;SDS011;10172;42.054;24.546;2023-06-14T07:53:38;11.10;;;5.85;;
20022;SDS011;10172;42.054;24.546;2023-06-14T07:56:06;7.82;;;5.05;;
20022;SDS011;10172;42.054;24.546;2023-06-14T07:58:31;8.48;;;5.50;;
20022;SDS011;10172;42.054;24.546;2023-06-14T08:00:56;7.65;;;4.90;;
20022;SDS011;10172;42.054;24.546;2023-06-14T08:03:22;8.43;;;4.32;;
20022;SDS011;10172;42.054;24.546;2023-06-14T08:05:47;7.15;;;5.05;;
20022;SDS011;10172;42.054;24.546;2023-06-14T08:08:13;7.43;;;5.03;;
20022;SDS011;10172;42.054;24.546;2023-06-14T08:10:39;7.38;;;4.57;;
20022;SDS011;10172;42.054;24.546;2023-06-14T08:13:04;6.75;;;4.68;;
20022;SDS011;10172;42.054;24.546;2023-06-14T08:15:30;7.97;;;4.50;;
20022;SDS011;10172;42.054;24.546;2023-06-14T08:17:55;7.75;;;5.07;;
20022;SDS011;10172;42.054;24.546;2023-06-14T08:20:21;7.13;;;4.55;;
20022;SDS011;10172;42.054;24.546;2023-06-14T08:22:46;6.65;;;4.65;;
20022;SDS011;10172;42.054;24.546;2023-06-14T08:25:13;6.47;;;4.65;;
20022;SDS011;10172;42.054;24.546;2023-06-14T08:27:39;7.57;;;5.32;;
20022;SDS011;10172;42.054;24.546;2023-06-14T08:30:05;7.40;;;4.43;;
20022;SDS011;10172;42.054;24.546;2023-06-14T08:32:32;7.32;;;4.55;;
20022;SDS011;10172;42.054;24.546;2023-06-14T08:34:58;6.60;;;4.20;;
20022;SDS011;10172;42.054;24.546;2023-06-14T08:37:23;9.10;;;5.93;;
20022;SDS011;10172;42.054;24.546;2023-06-14T08:39:49;10.48;;;5.50;;
20022;SDS011;10172;42.054;24.546;2023-06-14T08:42:15;6.95;;;4.78;;
20022;SDS011;10172;42.054;24.546;2023-06-14T08:44:44;7.65;;;4.82;;
20022;SDS011;10172;42.054;24.546;2023-06-14T08:47:09;9.48;;;5.43;;
20022;SDS011;10172;42.054;24.546;2023-06-14T08:49:36;7.32;;;4.72;;
20022;SDS011;10172;42.054;24.546;2023-06-14T08:52:03;7.80;;;5.40;;
20022;SDS011;10172;42.054;24.546;2023-06-14T08:54:33;7.38;;;5.13;;
20022;SDS011;10172;42.054;24.546;2023-06-14T08:57:01;7.60;;;4.78;;
20022;SDS011;10172;42.054;24.546;2023-06-14T08:59:29;8.63;;;5.15;;
20022;SDS011;10172;42.054;24.546;2023-06-14T09:01:56;11.55;;;4.93;;
20022;SDS011;10172;42.054;24.546;2023-06-14T09:04:22;10.13;;;5.18;;
20022;SDS011;10172;42.054;24.546;2023-06-14T09:06:49;9.98;;;4.53;;
20022;SDS011;10172;42.054;24.546;2023-06-14T09:09:20;7.60;;;4.55;;
20022;SDS011;10172;42.054;24.546;2023-06-14T09:11:46;7.00;;;4.80;;
20022;SDS011;10172;42.054;24.546;2023-06-14T09:14:12;7.97;;;4.47;;
20022;SDS011;10172;42.054;24.546;2023-06-14T09:16:37;7.25;;;4.32;;
20022;SDS011;10172;42.054;24.546;2023-06-14T09:19:03;8.00;;;4.72;;
20022;SDS011;10172;42.054;24.546;2023-06-14T09:21:28;7.38;;;5.00;;
20022;SDS011;10172;42.054;24.546;2023-06-14T09:23:59;7.57;;;4.72;;
20022;SDS011;10172;42.054;24.546;2023-06-14T09:26:25;8.45;;;5.20;;
20022;SDS011;10172;42.054;24.546;2023-06-14T09:28:52;7.15;;;4.28;;
20022;SDS011;10172;42.054;24.546;2023-06-14T09:31:18;7.50;;;5.03;;
20022;SDS011;10172;42.054;24.546;2023-06-14T09:33:45;7.38;;;4.97;;
20022;SDS011;10172;42.054;24.546;2023-06-14T09:36:18;7.22;;;4.65;;
20022;SDS011;10172;42.054;24.546;2023-06-14T09:39:01;8.88;;;5.53;;
20022;SDS011;10172;42.054;24.546;2023-06-14T09:41:35;10.40;;;5.55;;
20022;SDS011;10172;42.054;24.546;2023-06-14T09:44:02;8.43;;;4.90;;
20022;SDS011;10172;42.054;24.546;2023-06-14T09:46:29;8.77;;;5.53;;
20022;SDS011;10172;42.054;24.546;2023-06-14T09:48:56;9.63;;;5.65;;
20022;SDS011;10172;42.054;24.546;2023-06-14T09:51:26;8.18;;;5.45;;
20022;SDS011;10172;42.054;24.546;2023-06-14T09:53:52;6.85;;;4.90;;
20022;SDS011;10172;42.054;24.546;2023-06-14T09:56:22;7.97;;;5.38;;
20022;SDS011;10172;42.054;24.546;2023-06-14T09:58:53;8.15;;;5.45;;
20022;SDS011;10172;42.054;24.546;2023-06-14T10:01:20;11.88;;;5.75;;
20022;SDS011;10172;42.054;24.546;2023-06-14T10:03:48;10.68;;;5.55;;
20022;SDS011;10172;42.054;24.546;2023-06-14T10:06:17;11.50;;;5.90;;
20022;SDS011;10172;42.054;24.546;2023-06-14T10:08:42;9.02;;;4.90;;
20022;SDS011;10172;42.054;24.546;2023-06-14T10:11:10;9.13;;;6.15;;
20022;SDS011;10172;42.054;24.546;2023-06-14T10:13:37;9.05;;;5.72;;
20022;SDS011;10172;42.054;24.546;2023-06-14T10:25:06;7.25;;;5.25;;
20022;SDS011;10172;42.054;24.546;2023-06-14T10:27:37;9.13;;;6.10;;
20022;SDS011;10172;42.054;24.546;2023-06-14T10:30:03;8.50;;;5.00;;
20022;SDS011;10172;42.054;24.546;2023-06-14T10:32:30;7.35;;;4.90;;
20022;SDS011;10172;42.054;24.546;2023-06-14T10:34:58;7.63;;;4.93;;
20022;SDS011;10172;42.054;24.546;2023-06-14T10:37:26;6.95;;;4.53;;
20022;SDS011;10172;42.054;24.546;2023-06-14T10:39:51;6.22;;;4.50;;
20022;SDS011;10172;42.054;24.546;2023-06-14T10:42:18;8.90;;;5.18;;
20022;SDS011;10172;42.054;24.546;2023-06-14T10:50:03;8.57;;;4.95;;
20022;SDS011;10172;42.054;24.546;2023-06-14T10:52:32;7.88;;;5.45;;
20022;SDS011;10172;42.054;24.546;2023-06-14T10:57:45;8.65;;;5.75;;
20022;SDS011;10172;42.054;24.546;2023-06-14T11:00:14;14.45;;;5.88;;
20022;SDS011;10172;42.054;24.546;2023-06-14T11:11:16;6.70;;;4.70;;
20022;SDS011;10172;42.054;24.546;2023-06-14T11:13:44;7.78;;;5.10;;
20022;SDS011;10172;42.054;24.546;2023-06-14T11:16:14;6.90;;;4.20;;
20022;SDS011;10172;42.054;24.546;2023-06-14T11:18:42;8.57;;;5.35;;
20022;SDS011;10172;42.054;24.546;2023-06-14T11:21:09;6.22;;;4.57;;
20022;SDS011;10172;42.054;24.546;2023-06-14T11:23:35;6.07;;;4.32;;
20022;SDS011;10172;42.054;24.546;2023-06-14T11:26:01;6.75;;;4.65;;
20022;SDS011;10172;42.054;24.546;2023-06-14T11:28:36;7.40;;;5.00;;
20022;SDS011;10172;42.054;24.546;2023-06-14T11:31:03;6.10;;;4.55;;
20022;SDS011;10172;42.054;24.546;2023-06-14T11:33:29;7.50;;;4.82;;
20022;SDS011;10172;42.054;24.546;2023-06-14T11:35:55;6.35;;;4.80;;
20022;SDS011;10172;42.054;24.546;2023-06-14T11:38:20;6.38;;;3.97;;
20022;SDS011;10172;42.054;24.546;2023-06-14T11:40:46;5.82;;;4.25;;
20022;SDS011;10172;42.054;24.546;2023-06-14T11:43:11;8.60;;;4.50;;
20022;SDS011;10172;42.054;24.546;2023-06-14T11:45:38;6.90;;;4.82;;
20022;SDS011;10172;42.054;24.546;2023-06-14T11:48:04;6.13;;;4.32;;
20022;SDS011;10172;42.054;24.546;2023-06-14T11:50:31;6.22;;;4.63;;
20022;SDS011;10172;42.054;24.546;2023-06-14T11:52:58;7.22;;;4.65;;
20022;SDS011;10172;42.054;24.546;2023-06-14T11:55:31;6.20;;;4.03;;
20022;SDS011;10172;42.054;24.546;2023-06-14T11:57:57;8.30;;;4.28;;
20022;SDS011;10172;42.054;24.546;2023-06-14T12:00:26;5.82;;;3.75;;
20022;SDS011;10172;42.054;24.546;2023-06-14T12:02:53;6.07;;;3.65;;
20022;SDS011;10172;42.054;24.546;2023-06-14T12:05:21;4.97;;;3.53;;
20022;SDS011;10172;42.054;24.546;2023-06-14T12:07:47;4.90;;;3.13;;
20022;SDS011;10172;42.054;24.546;2023-06-14T12:10:14;6.22;;;3.50;;
20022;SDS011;10172;42.054;24.546;2023-06-14T12:12:40;6.07;;;3.03;;
20022;SDS011;10172;42.054;24.546;2023-06-14T12:15:07;5.65;;;2.88;;
20022;SDS011;10172;42.054;24.546;2023-06-14T12:17:36;4.72;;;3.25;;
20022;SDS011;10172;42.054;24.546;2023-06-14T12:20:07;4.45;;;2.92;;
20022;SDS011;10172;42.054;24.546;2023-06-14T12:25:32;4.47;;;2.58;;
20022;SDS011;10172;42.054;24.546;2023-06-14T12:28:07;4.30;;;2.55;;
20022;SDS011;10172;42.054;24.546;2023-06-14T12:30:35;3.10;;;2.38;;
20022;SDS011;10172;42.054;24.546;2023-06-14T12:33:02;3.88;;;2.58;;
20022;SDS011;10172;42.054;24.546;2023-06-14T12:35:30;4.35;;;2.90;;
20022;SDS011;10172;42.054;24.546;2023-06-14T12:37:56;4.97;;;2.58;;
20022;SDS011;10172;42.054;24.546;2023-06-14T12:40:21;5.05;;;2.95;;
20022;SDS011;10172;42.054;24.546;2023-06-14T12:42:47;4.15;;;2.75;;
20022;SDS011;10172;42.054;24.546;2023-06-14T12:45:13;4.07;;;2.80;;
20022;SDS011;10172;42.054;24.546;2023-06-14T12:47:39;6.18;;;3.70;;
20022;SDS011;10172;42.054;24.546;2023-06-14T12:50:05;8.88;;;5.28;;
20022;SDS011;10172;42.054;24.546;2023-06-14T12:52:31;8.18;;;5.10;;
20022;SDS011;10172;42.054;24.546;2023-06-14T12:54:56;7.00;;;4.90;;
20022;SDS011;10172;42.054;24.546;2023-06-14T12:57:22;8.05;;;5.28;;
20022;SDS011;10172;42.054;24.546;2023-06-14T12:59:49;7.95;;;5.43;;
20022;SDS011;10172;42.054;24.546;2023-06-14T13:02:18;9.10;;;5.07;;
20022;SDS011;10172;42.054;24.546;2023-06-14T13:04:47;6.60;;;5.03;;
20022;SDS011;10172;42.054;24.546;2023-06-14T13:07:13;6.40;;;4.60;;
20022;SDS011;10172;42.054;24.546;2023-06-14T13:09:40;7.35;;;5.50;;
20022;SDS011;10172;42.054;24.546;2023-06-14T13:12:06;6.03;;;4.95;;
20022;SDS011;10172;42.054;24.546;2023-06-14T13:14:32;5.80;;;4.70;;
20022;SDS011;10172;42.054;24.546;2023-06-14T13:16:57;7.50;;;5.00;;
20022;SDS011;10172;42.054;24.546;2023-06-14T13:19:23;6.90;;;4.70;;
20022;SDS011;10172;42.054;24.546;2023-06-14T13:21:48;7.22;;;5.10;;
20022;SDS011;10172;42.054;24.546;2023-06-14T13:24:14;9.68;;;4.60;;
20022;SDS011;10172;42.054;24.546;2023-06-14T13:26:40;6.30;;;4.53;;
20022;SDS011;10172;42.054;24.546;2023-06-14T13:29:05;7.03;;;4.97;;
20022;SDS011;10172;42.054;24.546;2023-06-14T13:31:31;7.68;;;5.10;;
20022;SDS011;10172;42.054;24.546;2023-06-14T13:33:56;6.50;;;5.00;;
20022;SDS011;10172;42.054;24.546;2023-06-14T13:36:22;7.35;;;4.43;;
20022;SDS011;10172;42.054;24.546;2023-06-14T13:38:48;7.75;;;5.30;;
20022;SDS011;10172;42.054;24.546;2023-06-14T13:41:13;7.32;;;5.03;;
20022;SDS011;10172;42.054;24.546;2023-06-14T13:43:38;8.27;;;5.43;;
20022;SDS011;10172;42.054;24.546;2023-06-14T13:46:05;5.80;;;4.53;;
20022;SDS011;10172;42.054;24.546;2023-06-14T13:48:31;9.02;;;4.85;;
20022;SDS011;10172;42.054;24.546;2023-06-14T13:50:56;6.53;;;4.93;;
20022;SDS011;10172;42.054;24.546;2023-06-14T13:53:22;7.30;;;5.07;;
20022;SDS011;10172;42.054;24.546;2023-06-14T13:55:48;7.25;;;5.00;;
20022;SDS011;10172;42.054;24.546;2023-06-14T13:58:14;9.15;;;5.78;;
20022;SDS011;10172;42.054;24.546;2023-06-14T14:00:40;8.13;;;5.47;;
20022;SDS011;10172;42.054;24.546;2023-06-14T14:03:06;7.38;;;4.93;;
20022;SDS011;10172;42.054;24.546;2023-06-14T14:05:33;7.68;;;5.20;;
20022;SDS011;10172;42.054;24.546;2023-06-14T14:07:59;8.35;;;5.65;;
20022;SDS011;10172;42.054;24.546;2023-06-14T14:10:24;9.45;;;5.30;;
20022;SDS011;10172;42.054;24.546;2023-06-14T14:12:50;7.07;;;4.82;;
20022;SDS011;10172;42.054;24.546;2023-06-14T14:15:17;7.28;;;4.88;;
20022;SDS011;10172;42.054;24.546;2023-06-14T14:17:43;7.65;;;5.18;;
20022;SDS011;10172;42.054;24.546;2023-06-14T14:20:09;9.55;;;6.05;;
20022;SDS011;10172;42.054;24.546;2023-06-14T14:22:37;7.60;;;4.82;;
20022;SDS011;10172;42.054;24.546;2023-06-14T14:25:03;9.10;;;5.85;;
20022;SDS011;10172;42.054;24.546;2023-06-14T14:27:28;10.63;;;6.57;;
20022;SDS011;10172;42.054;24.546;2023-06-14T14:29:54;8.18;;;5.22;;
20022;SDS011;10172;42.054;24.546;2023-06-14T14:32:19;6.40;;;5.07;;
20022;SDS011;10172;42.054;24.546;2023-06-14T14:34:45;8.75;;;5.13;;
20022;SDS011;10172;42.054;24.546;2023-06-14T14:37:10;5.60;;;3.95;;
20022;SDS011;10172;42.054;24.546;2023-06-14T14:39:36;6.95;;;4.47;;
20022;SDS011;10172;42.054;24.546;2023-06-14T14:42:02;5.88;;;4.25;;
20022;SDS011;10172;42.054;24.546;2023-06-14T14:44:28;6.13;;;3.92;;
20022;SDS011;10172;42.054;24.546;2023-06-14T14:46:53;8.82;;;5.40;;
20022;SDS011;10172;42.054;24.546;2023-06-14T14:49:19;5.68;;;4.32;;
20022;SDS011;10172;42.054;24.546;2023-06-14T14:51:45;6.18;;;4.13;;
20022;SDS011;10172;42.054;24.546;2023-06-14T14:54:10;7.30;;;4.13;;
20022;SDS011;10172;42.054;24.546;2023-06-14T14:56:36;7.93;;;4.65;;
20022;SDS011;10172;42.054;24.546;2023-06-14T14:59:03;8.15;;;5.13;;
20022;SDS011;10172;42.054;24.546;2023-06-14T15:01:29;10.63;;;5.43;;
20022;SDS011;10172;42.054;24.546;2023-06-14T15:03:54;8.30;;;5.13;;